Time;durP1;ratioP1;P1;durP2;ratioP2;P2;SDS_P1;SDS_P2;PMS_P1;PMS_P2;Temp;Humidity;BMP_temperature;BMP_pressure;BME280_temperature;BME280_humidity;BME280_pressure;Samples;Min_cycle;Max_cycle;Signal;HPM_P1;HPM_P2
2023/08/20 00:00:41;;;;;;;11.60;10.50;;;21.10;99.90;;;;;;489111;242;28907;-74
2023/08/20 00:02:43;;;;;;;10.70;9.60;;;21.00;99.90;;;;;;491629;241;28846;-74
2023/08/20 00:04:44;;;;;;;11.53;10.43;;;21.00;99.90;;;;;;491609;241;28931;-75
2023/08/20 00:06:46;;;;;;;11.00;9.93;;;21.00;99.90;;;;;;491610;241;29170;-74
2023/08/20 00:08:46;;;;;;;10.57;9.60;;;21.00;99.90;;;;;;491595;241;29370;-75
2023/08/20 00:10:48;;;;;;;11.40;9.63;;;20.90;99.90;;;;;;491604;242;29268;-75
2023/08/20 00:12:49;;;;;;;11.60;10.40;;;20.90;99.90;;;;;;491595;242;28820;-77
2023/08/20 00:14:50;;;;;;;10.83;9.73;;;20.90;99.90;;;;;;491607;241;28825;-75
2023/08/20 00:16:51;;;;;;;11.60;10.27;;;20.90;99.90;;;;;;491582;242;28928;-74
2023/08/20 00:18:53;;;;;;;10.93;9.83;;;20.80;99.90;;;;;;491610;241;28933;-75
2023/08/20 00:20:54;;;;;;;9.53;8.63;;;20.80;99.90;;;;;;491609;241;28919;-74
2023/08/20 00:22:55;;;;;;;9.50;8.60;;;20.80;99.90;;;;;;491608;241;28729;-75
2023/08/20 00:24:56;;;;;;;8.73;7.97;;;20.80;99.90;;;;;;491601;241;29372;-74
2023/08/20 00:26:58;;;;;;;12.80;9.00;;;20.80;99.90;;;;;;491593;241;29273;-75
2023/08/20 00:28:59;;;;;;;8.00;7.30;;;20.70;99.90;;;;;;491609;242;29385;-75
2023/08/20 00:31:01;;;;;;;8.60;7.77;;;20.70;99.90;;;;;;491613;241;28830;-74
2023/08/20 00:33:03;;;;;;;7.97;7.27;;;20.70;99.90;;;;;;491590;241;28914;-75
2023/08/20 00:35:06;;;;;;;8.93;8.13;;;20.70;99.90;;;;;;491617;241;28815;-74
2023/08/20 00:37:06;;;;;;;8.57;7.83;;;20.60;99.90;;;;;;491507;241;28946;-74
2023/08/20 00:39:07;;;;;;;8.13;7.43;;;20.60;99.90;;;;;;491607;241;28834;-74
2023/08/20 00:41:08;;;;;;;8.87;7.97;;;20.60;99.90;;;;;;491604;241;28723;-75
2023/08/20 00:43:10;;;;;;;8.80;8.00;;;20.60;99.90;;;;;;491606;241;28913;-74
2023/08/20 00:45:12;;;;;;;8.43;7.73;;;20.60;99.90;;;;;;491606;241;28823;-75
2023/08/20 00:47:12;;;;;;;8.90;8.07;;;20.60;99.90;;;;;;491568;241;28837;-75
2023/08/20 00:49:13;;;;;;;8.70;7.93;;;20.60;99.90;;;;;;491601;241;28819;-74
2023/08/20 00:51:15;;;;;;;9.53;8.70;;;20.50;99.90;;;;;;491604;241;28814;-74
2023/08/20 00:53:16;;;;;;;9.10;8.30;;;20.50;99.90;;;;;;491595;241;29256;-75
2023/08/20 00:55:17;;;;;;;11.57;8.70;;;20.50;99.90;;;;;;491665;241;29260;-76
2023/08/20 00:57:22;;;;;;;8.97;8.07;;;20.50;99.90;;;;;;491604;241;29283;-72
2023/08/20 00:59:20;;;;;;;9.57;8.57;;;20.50;99.90;;;;;;491468;242;28938;-74
2023/08/20 01:01:21;;;;;;;9.97;9.07;;;20.40;99.90;;;;;;491591;241;28815;-74
2023/08/20 01:03:23;;;;;;;9.50;8.70;;;20.40;99.90;;;;;;486287;241;28722;-74
2023/08/20 01:05:23;;;;;;;9.23;8.43;;;20.40;99.90;;;;;;485072;244;28797;-74
2023/08/20 01:07:26;;;;;;;9.40;8.60;;;20.30;99.90;;;;;;485104;244;28726;-75
2023/08/20 01:09:26;;;;;;;9.13;8.23;;;20.30;99.90;;;;;;485059;244;28792;-76
2023/08/20 01:11:27;;;;;;;9.67;8.60;;;20.30;99.90;;;;;;485090;244;28716;-74
2023/08/20 01:13:28;;;;;;;9.30;8.50;;;20.30;99.90;;;;;;485094;244;28709;-74
2023/08/20 01:15:30;;;;;;;10.17;9.23;;;20.30;99.90;;;;;;485096;244;28722;-75
2023/08/20 01:17:31;;;;;;;10.00;9.00;;;20.30;99.90;;;;;;485104;244;29339;-75
2023/08/20 01:19:32;;;;;;;12.23;9.00;;;20.30;99.90;;;;;;485102;244;29286;-73
2023/08/20 01:21:33;;;;;;;10.70;9.07;;;20.30;99.90;;;;;;485095;244;28800;-74
2023/08/20 01:23:35;;;;;;;8.70;7.90;;;20.20;99.90;;;;;;485101;244;28724;-74
2023/08/20 01:25:36;;;;;;;8.90;8.00;;;20.20;99.90;;;;;;485103;244;28784;-73
2023/08/20 01:27:37;;;;;;;9.00;8.20;;;20.20;99.90;;;;;;485101;244;28713;-75
2023/08/20 01:29:38;;;;;;;8.40;7.70;;;20.20;99.90;;;;;;485111;244;28720;-75
2023/08/20 01:31:40;;;;;;;9.27;8.47;;;20.10;99.90;;;;;;485124;244;28764;-76
2023/08/20 01:33:41;;;;;;;7.97;7.37;;;20.10;99.90;;;;;;485090;244;28725;-76
2023/08/20 01:35:42;;;;;;;9.10;8.30;;;20.10;99.90;;;;;;485095;244;28733;-74
2023/08/20 01:37:43;;;;;;;12.60;8.50;;;20.10;99.90;;;;;;485103;244;28722;-75
2023/08/20 01:39:45;;;;;;;8.60;7.90;;;20.00;99.90;;;;;;485120;244;29256;-74
2023/08/20 01:41:46;;;;;;;9.10;8.30;;;20.00;99.90;;;;;;485100;244;29179;-74
2023/08/20 01:43:47;;;;;;;8.93;8.03;;;20.00;99.90;;;;;;485098;244;29173;-74
2023/08/20 01:45:48;;;;;;;8.60;7.80;;;19.90;99.90;;;;;;485091;244;28799;-73
2023/08/20 01:47:50;;;;;;;8.87;8.17;;;19.90;99.90;;;;;;485111;244;28722;-77
2023/08/20 01:49:51;;;;;;;8.60;7.77;;;19.90;99.90;;;;;;485108;244;28722;-74
2023/08/20 01:51:52;;;;;;;9.40;8.50;;;19.90;99.90;;;;;;485104;244;28804;-74
2023/08/20 01:53:53;;;;;;;10.23;8.80;;;19.90;99.90;;;;;;485080;244;28713;-74
2023/08/20 01:55:55;;;;;;;10.63;8.40;;;19.90;99.90;;;;;;485098;244;28831;-75
2023/08/20 01:57:56;;;;;;;8.73;8.03;;;19.90;99.90;;;;;;485090;244;28706;-74
2023/08/20 01:59:58;;;;;;;9.37;8.40;;;19.80;99.90;;;;;;485118;244;28788;-74
2023/08/20 02:01:59;;;;;;;9.23;8.33;;;19.80;99.90;;;;;;485137;244;29266;-75
2023/08/20 02:04:00;;;;;;;8.00;7.40;;;19.80;99.90;;;;;;486699;242;29199;-74
2023/08/20 02:06:01;;;;;;;10.90;8.07;;;19.80;99.90;;;;;;485142;242;29268;-74
2023/08/20 02:08:02;;;;;;;8.63;7.83;;;19.80;99.90;;;;;;485120;244;28719;-74
2023/08/20 02:10:03;;;;;;;9.70;8.70;;;19.80;99.90;;;;;;485131;244;28708;-74
2023/08/20 02:12:05;;;;;;;8.87;7.90;;;19.80;99.90;;;;;;485126;244;28724;-74
2023/08/20 02:14:06;;;;;;;9.23;8.33;;;19.80;99.90;;;;;;485113;244;28730;-73
2023/08/20 02:16:07;;;;;;;8.30;7.57;;;19.80;99.90;;;;;;485133;244;28728;-74
2023/08/20 02:18:08;;;;;;;7.47;6.87;;;19.80;99.90;;;;;;485112;244;28815;-74
2023/08/20 02:20:10;;;;;;;8.90;8.10;;;19.80;99.90;;;;;;485123;244;28715;-74
2023/08/20 02:22:11;;;;;;;8.23;7.57;;;19.80;99.90;;;;;;485117;244;28765;-75
2023/08/20 02:24:12;;;;;;;8.30;7.60;;;19.80;99.90;;;;;;485112;244;29249;-74
2023/08/20 02:26:14;;;;;;;8.03;7.23;;;19.70;99.90;;;;;;485121;244;29264;-74
2023/08/20 02:28:15;;;;;;;7.03;6.40;;;19.70;99.90;;;;;;485086;244;29255;-74
2023/08/20 02:30:16;;;;;;;7.23;6.63;;;19.70;99.90;;;;;;485109;244;29695;-74
2023/08/20 02:32:17;;;;;;;7.70;7.10;;;19.70;99.90;;;;;;485111;244;28787;-74
2023/08/20 02:34:18;;;;;;;6.87;6.27;;;19.70;99.90;;;;;;485088;244;28705;-74
2023/08/20 02:36:20;;;;;;;8.50;7.70;;;19.70;99.90;;;;;;485127;244;28711;-73
2023/08/20 02:38:21;;;;;;;8.67;7.90;;;19.60;99.90;;;;;;485120;244;28799;-75
2023/08/20 02:40:22;;;;;;;8.80;8.00;;;19.60;99.90;;;;;;485116;244;28810;-74
2023/08/20 02:42:23;;;;;;;10.67;7.57;;;19.60;99.90;;;;;;485109;244;28811;-74
2023/08/20 02:44:25;;;;;;;8.27;7.07;;;19.50;99.90;;;;;;485106;244;28819;-74
2023/08/20 02:46:26;;;;;;;7.87;7.10;;;19.50;99.90;;;;;;485113;244;28729;-74
2023/08/20 02:48:28;;;;;;;8.10;7.33;;;19.50;99.90;;;;;;485102;244;29317;-75
2023/08/20 02:50:29;;;;;;;7.63;6.93;;;19.50;99.90;;;;;;485076;244;29169;-74
2023/08/20 02:52:30;;;;;;;8.03;7.30;;;19.50;99.90;;;;;;485129;244;29197;-74
2023/08/20 02:54:32;;;;;;;8.37;7.63;;;19.50;99.90;;;;;;485098;244;29180;-73
2023/08/20 02:56:32;;;;;;;8.03;7.30;;;19.50;99.90;;;;;;485102;244;28709;-74
2023/08/20 02:58:34;;;;;;;8.90;8.13;;;19.50;99.90;;;;;;485112;244;28780;-73
2023/08/20 03:00:36;;;;;;;8.70;7.90;;;19.50;99.90;;;;;;485109;244;28828;-73
2023/08/20 03:02:36;;;;;;;8.27;7.40;;;19.50;99.90;;;;;;485085;244;28725;-75
2023/08/20 03:04:37;;;;;;;8.37;7.57;;;19.50;99.90;;;;;;485123;244;28829;-74
2023/08/20 03:06:39;;;;;;;7.97;7.27;;;19.40;99.90;;;;;;487524;242;28900;-74
2023/08/20 03:08:40;;;;;;;8.53;7.73;;;19.40;99.90;;;;;;491642;241;28842;-74
2023/08/20 03:10:41;;;;;;;12.30;10.03;;;19.40;99.90;;;;;;491614;241;28842;-78
2023/08/20 03:12:42;;;;;;;9.57;8.57;;;19.30;99.90;;;;;;491611;241;29241;-74
2023/08/20 03:14:44;;;;;;;9.47;8.50;;;19.30;99.90;;;;;;491607;241;29293;-75
2023/08/20 03:16:45;;;;;;;7.83;7.03;;;19.30;99.90;;;;;;491604;241;29276;-75
2023/08/20 03:18:46;;;;;;;9.77;7.83;;;19.30;99.90;;;;;;491618;241;28819;-75
2023/08/20 03:20:47;;;;;;;10.03;8.67;;;19.30;99.90;;;;;;491623;241;28818;-76
2023/08/20 03:22:49;;;;;;;9.27;8.47;;;19.30;99.90;;;;;;491616;241;28820;-74
2023/08/20 03:24:50;;;;;;;7.70;6.90;;;19.30;99.90;;;;;;491614;241;28916;-75
2023/08/20 03:26:51;;;;;;;7.80;7.20;;;19.30;99.90;;;;;;491616;241;28727;-75
2023/08/20 03:28:52;;;;;;;8.53;7.63;;;19.30;99.90;;;;;;491609;241;28807;-74
2023/08/20 03:30:54;;;;;;;12.33;7.93;;;19.30;99.90;;;;;;491614;241;28951;-74
2023/08/20 03:32:55;;;;;;;8.00;7.23;;;19.30;99.90;;;;;;491620;241;28820;-74
2023/08/20 03:34:58;;;;;;;8.57;7.67;;;19.30;99.90;;;;;;491605;241;28914;-74
2023/08/20 03:36:57;;;;;;;7.40;6.80;;;19.30;99.90;;;;;;491493;242;29258;-75
2023/08/20 03:38:59;;;;;;;7.47;6.87;;;19.30;99.90;;;;;;491627;241;29376;-75
2023/08/20 03:41:00;;;;;;;6.80;6.20;;;19.30;99.90;;;;;;491614;241;29273;-75
2023/08/20 03:43:01;;;;;;;6.87;6.37;;;19.30;99.90;;;;;;491616;241;28805;-75
2023/08/20 03:45:02;;;;;;;7.07;6.47;;;19.30;99.90;;;;;;491615;241;28900;-75
2023/08/20 03:47:04;;;;;;;6.47;5.97;;;19.30;99.90;;;;;;491611;241;28919;-75
2023/08/20 03:49:05;;;;;;;5.90;5.33;;;19.30;99.90;;;;;;491596;241;28808;-74
2023/08/20 03:51:06;;;;;;;6.83;6.23;;;19.20;99.90;;;;;;491620;241;28932;-75
2023/08/20 03:53:07;;;;;;;6.30;5.80;;;19.30;99.90;;;;;;491620;241;28716;-75
2023/08/20 03:55:09;;;;;;;6.40;5.90;;;19.30;99.90;;;;;;491588;241;28823;-75
2023/08/20 03:57:10;;;;;;;6.87;6.27;;;19.30;99.90;;;;;;491607;241;28919;-75
2023/08/20 03:59:11;;;;;;;7.30;6.60;;;19.30;99.90;;;;;;491611;241;28817;-75
2023/08/20 04:01:12;;;;;;;6.47;5.97;;;19.30;99.90;;;;;;491604;241;29341;-75
2023/08/20 04:03:14;;;;;;;7.00;6.40;;;19.30;99.90;;;;;;491608;241;29353;-75
2023/08/20 04:05:15;;;;;;;8.50;6.23;;;19.30;99.90;;;;;;491612;241;29285;-75
2023/08/20 04:07:16;;;;;;;8.10;6.50;;;19.40;99.90;;;;;;491616;241;28781;-73
2023/08/20 04:09:17;;;;;;;6.50;6.00;;;19.40;99.90;;;;;;486440;241;28700;-75
2023/08/20 04:11:19;;;;;;;8.33;6.33;;;19.40;99.90;;;;;;485120;244;28723;-74
2023/08/20 04:13:20;;;;;;;7.10;6.40;;;19.50;99.90;;;;;;485110;244;28714;-75
2023/08/20 04:15:21;;;;;;;7.50;6.80;;;19.50;99.90;;;;;;485097;244;28735;-74
2023/08/20 04:17:22;;;;;;;8.10;6.83;;;19.50;99.90;;;;;;485121;244;28786;-77
2023/08/20 04:19:24;;;;;;;7.13;6.43;;;19.50;99.90;;;;;;485101;244;28781;-74
2023/08/20 04:21:25;;;;;;;7.20;6.50;;;19.50;99.90;;;;;;485099;244;28711;-75
2023/08/20 04:23:26;;;;;;;8.10;6.90;;;19.60;99.90;;;;;;485108;244;28708;-75
2023/08/20 04:25:27;;;;;;;7.43;6.83;;;19.60;99.90;;;;;;485083;244;29193;-74
2023/08/20 04:27:29;;;;;;;7.60;7.00;;;19.60;99.90;;;;;;485115;244;29168;-75
2023/08/20 04:29:30;;;;;;;7.53;6.83;;;19.60;99.90;;;;;;485115;244;29188;-74
2023/08/20 04:31:31;;;;;;;8.33;7.47;;;19.60;99.90;;;;;;485107;244;29291;-74
2023/08/20 04:33:32;;;;;;;8.60;7.80;;;19.60;99.90;;;;;;485105;244;28792;-74
2023/08/20 04:35:34;;;;;;;8.80;8.00;;;19.60;99.90;;;;;;485086;244;28713;-75
2023/08/20 04:37:35;;;;;;;9.20;7.07;;;19.60;99.90;;;;;;485066;244;28717;-75
2023/08/20 04:39:36;;;;;;;9.60;7.23;;;19.60;99.90;;;;;;485106;244;28725;-75
2023/08/20 04:41:37;;;;;;;8.13;7.30;;;19.60;99.90;;;;;;485117;244;28780;-75
2023/08/20 04:43:39;;;;;;;9.13;7.40;;;19.60;99.90;;;;;;485107;244;28714;-74
2023/08/20 04:45:40;;;;;;;8.20;7.50;;;19.60;99.90;;;;;;485090;245;28776;-74
2023/08/20 04:47:41;;;;;;;8.10;7.40;;;19.60;99.90;;;;;;485094;244;29187;-75
2023/08/20 04:49:43;;;;;;;7.87;7.07;;;19.60;99.90;;;;;;485106;244;29198;-75
2023/08/20 04:51:44;;;;;;;8.37;7.47;;;19.70;99.90;;;;;;485109;244;29204;-74
2023/08/20 04:53:47;;;;;;;8.17;7.40;;;19.70;99.90;;;;;;485075;244;29260;-74
2023/08/20 04:55:46;;;;;;;9.77;7.23;;;19.70;99.90;;;;;;485061;244;29173;-74
2023/08/20 04:57:47;;;;;;;7.90;7.30;;;19.70;99.90;;;;;;485104;244;28720;-74
2023/08/20 04:59:49;;;;;;;9.23;7.37;;;19.70;99.90;;;;;;485101;244;28709;-74
2023/08/20 05:01:50;;;;;;;9.43;6.80;;;19.70;99.90;;;;;;485110;244;28732;-74
2023/08/20 05:03:51;;;;;;;8.40;7.70;;;19.70;99.90;;;;;;485083;244;28716;-74
2023/08/20 05:05:52;;;;;;;8.00;7.30;;;19.70;99.90;;;;;;485103;244;28785;-75
2023/08/20 05:07:54;;;;;;;9.13;7.50;;;19.70;99.90;;;;;;485093;244;28720;-74
2023/08/20 05:09:55;;;;;;;8.50;7.70;;;19.70;99.90;;;;;;489501;242;28838;-75
2023/08/20 05:11:56;;;;;;;8.20;7.50;;;19.70;99.90;;;;;;491612;241;28841;-74
2023/08/20 05:13:57;;;;;;;8.23;7.43;;;19.70;99.90;;;;;;491615;241;28898;-74
2023/08/20 05:15:59;;;;;;;7.80;7.10;;;19.70;99.90;;;;;;491591;241;29273;-74
2023/08/20 05:18:00;;;;;;;8.47;7.77;;;19.80;99.90;;;;;;491592;242;29314;-74
2023/08/20 05:20:01;;;;;;;9.10;8.30;;;19.80;99.90;;;;;;491593;241;29265;-74
2023/08/20 05:22:02;;;;;;;8.30;7.50;;;19.90;99.90;;;;;;491598;241;28893;-74
2023/08/20 05:24:04;;;;;;;8.53;7.73;;;20.00;99.90;;;;;;491606;241;28815;-74
2023/08/20 05:26:05;;;;;;;8.50;7.60;;;20.00;99.90;;;;;;491598;242;28826;-75
2023/08/20 05:28:06;;;;;;;11.70;7.70;;;20.00;99.90;;;;;;491608;241;28838;-74
2023/08/20 05:30:08;;;;;;;7.97;7.27;;;20.00;99.90;;;;;;491605;241;28832;-74
2023/08/20 05:32:09;;;;;;;8.60;7.70;;;20.10;99.90;;;;;;491597;241;28757;-74
2023/08/20 05:34:10;;;;;;;9.00;8.20;;;20.10;99.90;;;;;;491593;241;28818;-73
2023/08/20 05:36:11;;;;;;;8.53;7.73;;;20.10;99.90;;;;;;491596;241;28818;-74
2023/08/20 05:38:12;;;;;;;9.20;8.30;;;20.20;99.90;;;;;;491598;241;29341;-74
2023/08/20 05:40:14;;;;;;;9.27;8.27;;;20.20;99.90;;;;;;491595;241;29345;-73
2023/08/20 05:42:15;;;;;;;9.03;8.23;;;20.20;99.90;;;;;;491604;241;29263;-74
2023/08/20 05:44:16;;;;;;;8.50;7.80;;;20.20;99.90;;;;;;491597;241;29270;-75
2023/08/20 05:46:17;;;;;;;8.10;7.43;;;20.10;99.90;;;;;;491603;241;28818;-74
2023/08/20 05:48:19;;;;;;;8.23;7.53;;;20.10;99.90;;;;;;491600;242;28889;-75
2023/08/20 05:50:20;;;;;;;8.23;7.47;;;20.10;99.90;;;;;;491612;241;28823;-74
2023/08/20 05:52:21;;;;;;;11.73;7.87;;;20.20;99.90;;;;;;491597;241;28825;-75
2023/08/20 05:54:22;;;;;;;8.17;7.47;;;20.20;99.90;;;;;;491596;241;28819;-74
2023/08/20 05:56:24;;;;;;;9.30;7.70;;;20.10;99.90;;;;;;491602;241;28822;-74
2023/08/20 05:58:25;;;;;;;7.47;6.70;;;20.00;99.90;;;;;;491601;241;28750;-73
2023/08/20 06:00:26;;;;;;;8.43;7.53;;;20.00;99.90;;;;;;491604;241;28821;-74
2023/08/20 06:02:27;;;;;;;9.53;7.27;;;20.00;99.90;;;;;;491592;241;29370;-74
2023/08/20 06:04:29;;;;;;;7.90;7.20;;;20.10;99.90;;;;;;491599;241;29270;-74
2023/08/20 06:06:30;;;;;;;10.73;7.40;;;20.10;99.90;;;;;;491600;241;29285;-74
2023/08/20 06:08:31;;;;;;;8.33;7.20;;;20.10;99.90;;;;;;491599;242;28891;-73
2023/08/20 06:10:32;;;;;;;8.03;7.33;;;20.10;99.90;;;;;;491598;241;28909;-74
2023/08/20 06:12:34;;;;;;;9.13;8.30;;;20.20;99.90;;;;;;491586;241;28904;-74
2023/08/20 06:14:35;;;;;;;9.47;8.50;;;20.20;99.90;;;;;;491600;241;28834;-74
2023/08/20 06:16:36;;;;;;;9.70;8.63;;;20.30;99.90;;;;;;491586;241;28813;-74
2023/08/20 06:18:37;;;;;;;9.17;8.23;;;20.40;99.90;;;;;;491595;242;28738;-74
2023/08/20 06:20:39;;;;;;;9.53;8.73;;;20.50;99.90;;;;;;491596;241;28827;-74
2023/08/20 06:22:40;;;;;;;9.43;8.53;;;20.50;99.90;;;;;;491602;241;28890;-74
2023/08/20 06:24:41;;;;;;;9.30;8.50;;;20.60;99.90;;;;;;491591;241;28818;-74
2023/08/20 06:26:44;;;;;;;9.20;8.30;;;20.70;99.90;;;;;;491595;241;29329;-74
2023/08/20 06:28:44;;;;;;;10.10;9.20;;;20.70;99.90;;;;;;491551;242;29349;-75
2023/08/20 06:30:45;;;;;;;10.23;8.70;;;20.80;99.90;;;;;;491602;241;29373;-75
2023/08/20 06:32:46;;;;;;;9.57;8.60;;;20.80;99.90;;;;;;491593;241;28897;-74
2023/08/20 06:34:48;;;;;;;10.13;9.13;;;20.90;99.90;;;;;;491605;241;28823;-75
2023/08/20 06:36:49;;;;;;;10.30;9.27;;;20.90;99.90;;;;;;491584;241;28816;-74
2023/08/20 06:38:50;;;;;;;10.23;9.20;;;21.00;99.90;;;;;;491596;241;28819;-74
2023/08/20 06:40:51;;;;;;;10.90;8.40;;;21.00;99.90;;;;;;491601;241;28816;-75
2023/08/20 06:42:53;;;;;;;9.70;8.80;;;21.00;99.90;;;;;;491594;241;28813;-75
2023/08/20 06:44:54;;;;;;;9.90;8.90;;;21.00;99.90;;;;;;491596;241;28809;-75
2023/08/20 06:46:55;;;;;;;10.20;9.10;;;21.10;99.90;;;;;;491613;242;29253;-75
2023/08/20 06:48:56;;;;;;;9.50;8.60;;;21.10;99.90;;;;;;491613;241;29260;-75
2023/08/20 06:50:58;;;;;;;12.00;9.67;;;21.20;99.90;;;;;;491582;242;29262;-74
2023/08/20 06:52:59;;;;;;;10.20;9.20;;;21.20;99.90;;;;;;491614;241;28815;-74
2023/08/20 06:55:00;;;;;;;9.43;8.60;;;21.30;99.90;;;;;;491597;241;28804;-75
2023/08/20 06:57:02;;;;;;;9.47;8.57;;;21.30;99.90;;;;;;491573;241;28822;-75
2023/08/20 06:59:03;;;;;;;9.30;8.50;;;21.40;99.90;;;;;;491616;241;28799;-75
2023/08/20 07:01:07;;;;;;;10.47;9.13;;;21.40;99.90;;;;;;491616;242;28738;-74
2023/08/20 07:03:08;;;;;;;9.90;9.00;;;21.40;99.90;;;;;;491616;242;29352;-74
2023/08/20 07:05:09;;;;;;;9.83;8.93;;;21.50;99.90;;;;;;491621;241;29241;-74
2023/08/20 07:07:10;;;;;;;10.60;9.00;;;21.50;99.90;;;;;;491624;241;28822;-74
2023/08/20 07:09:12;;;;;;;10.33;8.70;;;21.60;99.90;;;;;;491622;241;28899;-75
2023/08/20 07:11:13;;;;;;;9.63;8.73;;;21.60;99.90;;;;;;491605;241;28821;-74
2023/08/20 07:13:14;;;;;;;10.30;9.27;;;21.70;99.90;;;;;;491610;241;28902;-74
2023/08/20 07:15:15;;;;;;;9.97;8.40;;;21.70;99.90;;;;;;491607;241;28915;-74
2023/08/20 07:17:17;;;;;;;9.13;8.17;;;21.80;99.90;;;;;;491606;241;28887;-74
2023/08/20 07:19:18;;;;;;;9.20;7.60;;;22.10;99.90;;;;;;491616;241;28856;-74
2023/08/20 07:21:19;;;;;;;8.33;7.27;;;22.50;99.90;;;;;;491601;242;28913;-74
2023/08/20 07:23:21;;;;;;;10.37;7.47;;;22.70;99.90;;;;;;491615;241;29259;-75
2023/08/20 07:25:22;;;;;;;8.20;7.40;;;22.80;99.90;;;;;;491605;241;29265;-74
2023/08/20 07:27:23;;;;;;;11.27;7.60;;;22.90;99.90;;;;;;491611;241;29417;-74
2023/08/20 07:29:25;;;;;;;7.40;6.70;;;22.90;99.90;;;;;;491611;241;28899;-74
2023/08/20 07:31:26;;;;;;;7.23;6.40;;;22.90;99.90;;;;;;491615;241;28889;-75
2023/08/20 07:33:27;;;;;;;10.60;7.50;;;23.00;99.90;;;;;;491618;241;28928;-74
2023/08/20 07:35:28;;;;;;;6.90;6.17;;;23.10;99.90;;;;;;491611;242;28911;-74
2023/08/20 07:37:29;;;;;;;10.50;7.53;;;23.10;99.90;;;;;;491610;241;28805;-75
2023/08/20 07:39:31;;;;;;;11.83;6.80;;;23.20;99.90;;;;;;491611;241;28819;-74
2023/08/20 07:41:32;;;;;;;7.77;6.83;;;23.20;99.90;;;;;;491618;241;28907;-75
2023/08/20 07:43:33;;;;;;;8.60;6.67;;;23.20;99.90;;;;;;491603;241;29254;-74
2023/08/20 07:45:34;;;;;;;7.60;6.77;;;23.20;99.90;;;;;;491615;241;29210;-73
2023/08/20 07:47:36;;;;;;;9.00;6.30;;;23.40;99.90;;;;;;491616;241;29374;-74
2023/08/20 07:49:37;;;;;;;8.33;6.30;;;23.40;99.90;;;;;;491612;241;28710;-74
2023/08/20 07:51:38;;;;;;;9.33;7.03;;;23.50;99.90;;;;;;491612;241;28830;-75
2023/08/20 07:53:39;;;;;;;9.83;6.93;;;23.50;99.90;;;;;;491605;242;28902;-74
2023/08/20 07:55:41;;;;;;;9.17;6.83;;;23.60;99.90;;;;;;491612;241;28718;-74
2023/08/20 07:57:42;;;;;;;9.20;6.47;;;23.60;99.90;;;;;;491593;241;28925;-74
2023/08/20 07:59:43;;;;;;;8.90;7.20;;;23.70;99.90;;;;;;491610;241;28832;-74
2023/08/20 08:01:44;;;;;;;7.30;6.60;;;23.70;99.90;;;;;;491608;241;28820;-74
2023/08/20 08:03:46;;;;;;;8.63;6.53;;;23.70;99.90;;;;;;491609;241;28904;-73
2023/08/20 08:05:47;;;;;;;7.40;6.63;;;23.70;99.90;;;;;;491614;241;29283;-74
2023/08/20 08:07:48;;;;;;;7.70;7.00;;;23.70;99.90;;;;;;491592;242;29300;-75
2023/08/20 08:09:49;;;;;;;9.67;6.30;;;23.80;99.90;;;;;;491611;241;28827;-74
2023/08/20 08:11:51;;;;;;;7.27;6.57;;;24.00;99.90;;;;;;491604;241;28727;-74
2023/08/20 08:13:52;;;;;;;7.63;6.70;;;24.10;99.90;;;;;;491897;241;29391;-74
2023/08/20 08:15:53;;;;;;;8.53;6.63;;;24.20;99.90;;;;;;491163;242;29255;-74
2023/08/20 08:17:54;;;;;;;8.07;7.27;;;24.10;99.90;;;;;;491167;242;29151;-75
2023/08/20 08:19:57;;;;;;;13.43;7.00;;;24.30;99.90;;;;;;491177;242;28808;-74
2023/08/20 08:21:57;;;;;;;7.67;6.53;;;24.40;99.90;;;;;;490993;242;28720;-75
2023/08/20 08:23:58;;;;;;;10.27;7.30;;;24.40;99.90;;;;;;491172;242;28723;-74
2023/08/20 08:25:59;;;;;;;9.13;6.80;;;24.50;99.90;;;;;;491179;242;28713;-74
2023/08/20 08:28:01;;;;;;;10.37;7.20;;;24.50;99.90;;;;;;491136;237;28711;-74
2023/08/20 08:30:02;;;;;;;9.30;6.50;;;24.70;99.90;;;;;;491175;242;28794;-75
2023/08/20 08:32:03;;;;;;;9.50;6.80;;;24.80;99.90;;;;;;491170;242;28781;-74
2023/08/20 08:34:04;;;;;;;7.60;6.90;;;24.80;99.90;;;;;;491193;242;29275;-75
2023/08/20 08:36:06;;;;;;;8.63;6.90;;;24.80;99.90;;;;;;491169;242;29262;-75
2023/08/20 08:38:07;;;;;;;8.00;6.40;;;24.80;99.90;;;;;;491157;242;29166;-74
2023/08/20 08:40:08;;;;;;;8.80;6.90;;;24.80;99.90;;;;;;491178;242;28714;-74
2023/08/20 08:42:09;;;;;;;7.33;6.63;;;24.70;99.90;;;;;;491167;242;28707;-74
2023/08/20 08:44:11;;;;;;;7.70;7.00;;;24.70;99.90;;;;;;491175;242;28728;-73
2023/08/20 08:46:13;;;;;;;7.80;6.80;;;25.00;99.90;;;;;;491184;242;28698;-75
2023/08/20 08:48:13;;;;;;;13.57;7.70;;;25.10;99.90;;;;;;491161;242;28809;-74
2023/08/20 08:50:14;;;;;;;9.43;6.80;;;25.20;99.90;;;;;;491171;242;28796;-75
2023/08/20 08:52:16;;;;;;;9.20;6.47;;;25.20;99.90;;;;;;491167;242;28786;-74
2023/08/20 08:54:17;;;;;;;7.27;6.00;;;25.30;99.90;;;;;;491171;242;28710;-74
2023/08/20 08:56:18;;;;;;;7.60;6.10;;;25.30;99.90;;;;;;491175;242;28786;-75
2023/08/20 08:58:19;;;;;;;8.53;6.93;;;25.40;99.90;;;;;;491173;242;29164;-79
2023/08/20 09:00:21;;;;;;;8.40;6.30;;;25.40;99.90;;;;;;491165;242;29170;-75
2023/08/20 09:02:23;;;;;;;8.03;6.80;;;25.40;99.90;;;;;;491169;242;29319;-74
2023/08/20 09:04:23;;;;;;;6.63;5.90;;;25.40;99.90;;;;;;491158;242;28822;-75
2023/08/20 09:06:24;;;;;;;7.40;6.57;;;25.40;99.90;;;;;;491169;242;28800;-75
2023/08/20 09:08:26;;;;;;;6.20;5.63;;;25.50;99.90;;;;;;491160;242;28717;-74
2023/08/20 09:10:27;;;;;;;8.00;6.20;;;25.40;99.90;;;;;;491170;242;28698;-75
2023/08/20 09:12:28;;;;;;;9.90;5.53;;;25.50;99.90;;;;;;491163;242;28796;-74
2023/08/20 09:14:29;;;;;;;6.47;4.90;;;25.60;99.90;;;;;;491166;242;28745;-75
2023/08/20 09:16:31;;;;;;;8.60;5.20;;;25.60;99.90;;;;;;491139;242;28794;-74
2023/08/20 09:18:32;;;;;;;5.97;5.20;;;25.80;99.90;;;;;;491348;242;28704;-75
2023/08/20 09:20:33;;;;;;;9.27;5.70;;;25.90;99.90;;;;;;491600;241;28906;-75
2023/08/20 09:22:34;;;;;;;5.97;4.93;;;26.00;99.90;;;;;;491606;241;29341;-75
2023/08/20 09:24:36;;;;;;;7.90;5.80;;;25.90;99.90;;;;;;491598;241;29371;-74
2023/08/20 09:26:37;;;;;;;6.30;5.70;;;25.90;99.90;;;;;;491589;242;29357;-74
2023/08/20 09:28:38;;;;;;;6.20;4.97;;;25.90;99.90;;;;;;491611;241;29094;-74
2023/08/20 09:30:41;;;;;;;6.03;5.43;;;25.90;99.90;;;;;;491598;241;28899;-74
2023/08/20 09:32:41;;;;;;;5.10;4.60;;;25.80;99.90;;;;;;491556;242;28828;-74
2023/08/20 09:34:42;;;;;;;5.27;4.50;;;25.70;99.90;;;;;;491601;241;28807;-74
2023/08/20 09:36:43;;;;;;;5.33;4.77;;;25.90;99.90;;;;;;491597;241;28897;-75
2023/08/20 09:38:45;;;;;;;8.17;3.90;;;26.00;99.90;;;;;;491625;242;28906;-76
2023/08/20 09:40:47;;;;;;;4.93;4.17;;;26.40;99.90;;;;;;491594;242;28816;-75
2023/08/20 09:42:48;;;;;;;5.60;4.07;;;26.30;99.90;;;;;;491594;241;28906;-76
2023/08/20 09:44:49;;;;;;;5.50;4.90;;;26.40;99.90;;;;;;491585;241;29411;-74
2023/08/20 09:46:51;;;;;;;7.83;3.83;;;26.60;99.90;;;;;;491584;242;29278;-74
2023/08/20 09:48:53;;;;;;;8.20;4.23;;;26.70;99.90;;;;;;491591;241;28827;-74
2023/08/20 09:50:54;;;;;;;7.80;4.30;;;26.60;99.90;;;;;;491588;241;29291;-76
2023/08/20 09:52:55;;;;;;;4.60;4.20;;;26.60;99.90;;;;;;491591;242;29277;-75
2023/08/20 09:54:56;;;;;;;7.53;4.73;;;26.70;99.90;;;;;;491597;241;29294;-74
2023/08/20 09:56:58;;;;;;;8.23;4.50;;;26.70;99.90;;;;;;491602;241;29279;-74
2023/08/20 09:58:59;;;;;;;4.53;4.07;;;26.80;99.90;;;;;;491589;241;28817;-75
2023/08/20 10:01:00;;;;;;;4.63;3.90;;;26.80;99.90;;;;;;491597;242;28845;-75
2023/08/20 10:03:01;;;;;;;6.50;3.93;;;26.90;99.90;;;;;;491590;241;28819;-74
2023/08/20 10:05:03;;;;;;;5.23;4.80;;;26.90;99.90;;;;;;491592;241;28827;-75
2023/08/20 10:07:05;;;;;;;7.90;4.43;;;26.90;99.90;;;;;;491595;241;28813;-75
2023/08/20 10:09:06;;;;;;;5.20;4.10;;;26.90;99.90;;;;;;491595;241;28808;-76
2023/08/20 10:11:07;;;;;;;5.33;4.60;;;26.80;99.90;;;;;;491595;241;29274;-75
2023/08/20 10:13:09;;;;;;;4.63;4.10;;;26.90;99.90;;;;;;491592;241;29349;-74
2023/08/20 10:15:10;;;;;;;5.83;4.23;;;27.10;99.90;;;;;;491558;241;29258;-74
2023/08/20 10:17:11;;;;;;;7.13;4.10;;;27.10;99.90;;;;;;491585;242;29374;-75
2023/08/20 10:19:12;;;;;;;5.83;4.17;;;27.10;99.90;;;;;;491585;241;28812;-74
2023/08/20 10:21:14;;;;;;;6.40;3.87;;;27.30;99.90;;;;;;491620;242;28819;-75
2023/08/20 10:23:16;;;;;;;8.70;4.57;;;27.20;99.90;;;;;;491622;241;28730;-74
2023/08/20 10:25:16;;;;;;;5.37;4.40;;;27.20;99.90;;;;;;491600;241;28808;-74
2023/08/20 10:27:17;;;;;;;6.23;3.97;;;27.20;99.90;;;;;;491609;241;28793;-74
2023/08/20 10:29:19;;;;;;;5.90;5.03;;;27.10;99.90;;;;;;491620;241;28921;-74